sensor_id;sensor_type;location;lat;lon;timestamp;temperature;humidity
1534;DHT22;760;48.822;9.304;2023-07-08T04:05:16;18.10;87.30
1534;DHT22;760;48.822;9.304;2023-07-08T04:07:42;18.10;86.50
1534;DHT22;760;48.822;9.304;2023-07-08T04:10:09;18.20;85.60
1534;DHT22;760;48.822;9.304;2023-07-08T04:12:35;18.20;85.80
1534;DHT22;760;48.822;9.304;2023-07-08T04:15:01;18.30;86.00
1534;DHT22;760;48.822;9.304;2023-07-08T04:17:27;18.30;86.10
1534;DHT22;760;48.822;9.304;2023-07-08T04:19:53;18.40;86.60
1534;DHT22;760;48.822;9.304;2023-07-08T04:22:18;18.40;86.90
1534;DHT22;760;48.822;9.304;2023-07-08T04:24:44;18.60;87.10
1534;DHT22;760;48.822;9.304;2023-07-08T04:27:14;18.70;86.70
1534;DHT22;760;48.822;9.304;2023-07-08T04:29:41;18.90;85.00
1534;DHT22;760;48.822;9.304;2023-07-08T04:32:07;19.10;85.70
1534;DHT22;760;48.822;9.304;2023-07-08T04:34:33;19.30;84.70
1534;DHT22;760;48.822;9.304;2023-07-08T04:36:58;19.60;84.40
1534;DHT22;760;48.822;9.304;2023-07-08T04:39:24;19.80;83.70
1534;DHT22;760;48.822;9.304;2023-07-08T04:41:50;20.10;83.60
1534;DHT22;760;48.822;9.304;2023-07-08T04:44:15;20.40;82.40
1534;DHT22;760;48.822;9.304;2023-07-08T04:46:54;20.70;81.50
1534;DHT22;760;48.822;9.304;2023-07-08T04:49:22;20.90;80.70
1534;DHT22;760;48.822;9.304;2023-07-08T04:51:48;21.10;80.30
1534;DHT22;760;48.822;9.304;2023-07-08T04:54:14;21.30;79.80
1534;DHT22;760;48.822;9.304;2023-07-08T04:56:42;21.40;79.20
1534;DHT22;760;48.822;9.304;2023-07-08T04:59:10;21.50;77.10
1534;DHT22;760;48.822;9.304;2023-07-08T05:01:36;21.50;76.90
1534;DHT22;760;48.822;9.304;2023-07-08T05:04:03;21.60;77.40
1534;DHT22;760;48.822;9.304;2023-07-08T05:06:30;21.70;76.70
1534;DHT22;760;48.822;9.304;2023-07-08T05:08:56;21.80;76.30
1534;DHT22;760;48.822;9.304;2023-07-08T05:11:21;21.80;76.00
1534;DHT22;760;48.822;9.304;2023-07-08T05:13:47;21.70;75.90
1534;DHT22;760;48.822;9.304;2023-07-08T05:16:12;21.70;76.20
1534;DHT22;760;48.822;9.304;2023-07-08T05:18:38;21.60;75.40
1534;DHT22;760;48.822;9.304;2023-07-08T05:21:04;21.60;76.60
1534;DHT22;760;48.822;9.304;2023-07-08T05:23:30;21.60;76.40
1534;DHT22;760;48.822;9.304;2023-07-08T05:25:59;21.70;76.60
1534;DHT22;760;48.822;9.304;2023-07-08T05:28:25;21.80;76.80
1534;DHT22;760;48.822;9.304;2023-07-08T05:30:55;22.00;76.90
1534;DHT22;760;48.822;9.304;2023-07-08T05:33:25;22.20;76.30
1534;DHT22;760;48.822;9.304;2023-07-08T05:35:51;22.30;75.80
1534;DHT22;760;48.822;9.304;2023-07-08T05:38:17;22.50;75.60
1534;DHT22;760;48.822;9.304;2023-07-08T05:40:43;22.80;75.40
1534;DHT22;760;48.822;9.304;2023-07-08T05:43:09;23.50;75.00
1534;DHT22;760;48.822;9.304;2023-07-08T05:45:34;24.20;71.90
1534;DHT22;760;48.822;9.304;2023-07-08T05:48:03;24.60;69.50
1534;DHT22;760;48.822;9.304;2023-07-08T05:50:28;24.80;67.60
1534;DHT22;760;48.822;9.304;2023-07-08T05:52:54;24.90;68.30
1534;DHT22;760;48.822;9.304;2023-07-08T05:55:19;25.00;68.40
1534;DHT22;760;48.822;9.304;2023-07-08T05:57:45;25.10;67.60
1534;DHT22;760;48.822;9.304;2023-07-08T06:00:11;25.20;68.20
1534;DHT22;760;48.822;9.304;2023-07-08T06:02:37;25.20;68.50
1534;DHT22;760;48.822;9.304;2023-07-08T06:05:02;25.20;68.70
1534;DHT22;760;48.822;9.304;2023-07-08T06:07:28;25.30;67.90
1534;DHT22;760;48.822;9.304;2023-07-08T06:09:53;25.50;66.80
1534;DHT22;760;48.822;9.304;2023-07-08T06:12:21;25.60;66.00
1534;DHT22;760;48.822;9.304;2023-07-08T06:14:47;25.70;63.60
1534;DHT22;760;48.822;9.304;2023-07-08T06:17:12;25.80;63.70
1534;DHT22;760;48.822;9.304;2023-07-08T06:19:38;25.90;62.50
1534;DHT22;760;48.822;9.304;2023-07-08T06:22:04;26.00;62.90
1534;DHT22;760;48.822;9.304;2023-07-08T06:24:30;26.10;61.50
1534;DHT22;760;48.822;9.304;2023-07-08T06:26:55;26.10;61.70
1534;DHT22;760;48.822;9.304;2023-07-08T06:29:21;26.10;61.60
1534;DHT22;760;48.822;9.304;2023-07-08T06:31:46;26.20;61.90
1534;DHT22;760;48.822;9.304;2023-07-08T06:34:12;26.40;61.50
1534;DHT22;760;48.822;9.304;2023-07-08T06:36:37;26.70;60.40
1534;DHT22;760;48.822;9.304;2023-07-08T06:39:03;26.90;60.00
1534;DHT22;760;48.822;9.304;2023-07-08T06:41:32;27.10;59.80
1534;DHT22;760;48.822;9.304;2023-07-08T06:43:58;27.30;59.00
1534;DHT22;760;48.822;9.304;2023-07-08T06:46:24;27.40;58.80
1534;DHT22;760;48.822;9.304;2023-07-08T06:48:49;27.40;59.00
1534;DHT22;760;48.822;9.304;2023-07-08T06:51:15;27.40;59.30
1534;DHT22;760;48.822;9.304;2023-07-08T06:53:41;27.40;58.80
1534;DHT22;760;48.822;9.304;2023-07-08T06:56:07;27.40;58.90
1534;DHT22;760;48.822;9.304;2023-07-08T06:58:33;27.40;59.30
1534;DHT22;760;48.822;9.304;2023-07-08T07:00:59;27.40;59.60
1534;DHT22;760;48.822;9.304;2023-07-08T07:03:25;27.50;59.60
1534;DHT22;760;48.822;9.304;2023-07-08T07:05:52;27.80;59.00
1534;DHT22;760;48.822;9.304;2023-07-08T07:08:17;28.10;58.60
1534;DHT22;760;48.822;9.304;2023-07-08T07:10:43;28.30;58.50
1534;DHT22;760;48.822;9.304;2023-07-08T07:13:09;28.50;58.70
1534;DHT22;760;48.822;9.304;2023-07-08T07:15:35;28.60;59.10
1534;DHT22;760;48.822;9.304;2023-07-08T07:18:00;28.30;59.60
1534;DHT22;760;48.822;9.304;2023-07-08T07:20:27;28.20;59.60
1534;DHT22;760;48.822;9.304;2023-07-08T07:22:52;28.00;60.50
1534;DHT22;760;48.822;9.304;2023-07-08T07:25:18;27.80;61.20
1534;DHT22;760;48.822;9.304;2023-07-08T07:27:44;27.70;62.20
1534;DHT22;760;48.822;9.304;2023-07-08T07:30:10;27.70;62.80
1534;DHT22;760;48.822;9.304;2023-07-08T07:32:41;27.80;62.60
1534;DHT22;760;48.822;9.304;2023-07-08T07:35:08;27.80;62.20
1534;DHT22;760;48.822;9.304;2023-07-08T07:37:38;27.90;62.40
1534;DHT22;760;48.822;9.304;2023-07-08T07:40:05;27.80;62.90
1534;DHT22;760;48.822;9.304;2023-07-08T07:42:31;27.80;62.60
1534;DHT22;760;48.822;9.304;2023-07-08T07:44:56;27.80;62.70
1534;DHT22;760;48.822;9.304;2023-07-08T07:47:22;27.80;62.60
1534;DHT22;760;48.822;9.304;2023-07-08T07:49:47;27.80;63.20
1534;DHT22;760;48.822;9.304;2023-07-08T07:52:13;27.90;63.70
1534;DHT22;760;48.822;9.304;2023-07-08T07:54:39;28.10;64.30
1534;DHT22;760;48.822;9.304;2023-07-08T07:57:05;28.20;64.50
1534;DHT22;760;48.822;9.304;2023-07-08T07:59:31;28.30;64.20
1534;DHT22;760;48.822;9.304;2023-07-08T08:01:57;28.40;63.70
1534;DHT22;760;48.822;9.304;2023-07-08T08:04:22;28.70;62.70
1534;DHT22;760;48.822;9.304;2023-07-08T08:06:48;29.20;61.80
1534;DHT22;760;48.822;9.304;2023-07-08T08:09:14;29.70;61.10
1534;DHT22;760;48.822;9.304;2023-07-08T08:11:39;30.10;60.50
1534;DHT22;760;48.822;9.304;2023-07-08T08:14:05;30.60;59.90
1534;DHT22;760;48.822;9.304;2023-07-08T08:16:30;31.00;59.20
1534;DHT22;760;48.822;9.304;2023-07-08T08:18:56;31.50;58.40
1534;DHT22;760;48.822;9.304;2023-07-08T08:21:22;32.10;58.20
1534;DHT22;760;48.822;9.304;2023-07-08T08:23:47;33.10;56.40
1534;DHT22;760;48.822;9.304;2023-07-08T08:26:13;34.00;54.80
1534;DHT22;760;48.822;9.304;2023-07-08T08:28:39;34.70;53.80
1534;DHT22;760;48.822;9.304;2023-07-08T08:31:05;35.50;52.20
1534;DHT22;760;48.822;9.304;2023-07-08T08:33:30;36.10;51.50
1534;DHT22;760;48.822;9.304;2023-07-08T08:35:56;36.60;50.30
1534;DHT22;760;48.822;9.304;2023-07-08T08:38:22;37.40;49.20
1534;DHT22;760;48.822;9.304;2023-07-08T08:40:47;38.30;48.60
1534;DHT22;760;48.822;9.304;2023-07-08T08:43:19;39.30;47.70
1534;DHT22;760;48.822;9.304;2023-07-08T08:49:05;40.40;45.40
1534;DHT22;760;48.822;9.304;2023-07-08T08:51:37;41.10;44.70
1534;DHT22;760;48.822;9.304;2023-07-08T08:54:03;41.80;43.70
1534;DHT22;760;48.822;9.304;2023-07-08T08:56:34;41.80;42.90
1534;DHT22;760;48.822;9.304;2023-07-08T08:59:22;41.70;42.50
1534;DHT22;760;48.822;9.304;2023-07-08T09:01:50;42.00;42.20
1534;DHT22;760;48.822;9.304;2023-07-08T09:04:20;42.40;42.00
1534;DHT22;760;48.822;9.304;2023-07-08T09:06:47;42.60;41.30
1534;DHT22;760;48.822;9.304;2023-07-08T09:09:38;42.20;41.50
1534;DHT22;760;48.822;9.304;2023-07-08T09:12:11;41.50;42.10
1534;DHT22;760;48.822;9.304;2023-07-08T09:14:38;41.00;42.50
1534;DHT22;760;48.822;9.304;2023-07-08T09:17:30;40.80;42.10
1534;DHT22;760;48.822;9.304;2023-07-08T09:26:16;41.00;42.60
1534;DHT22;760;48.822;9.304;2023-07-08T09:28:20;41.40;42.50
1534;DHT22;760;48.822;9.304;2023-07-08T09:30:51;42.10;42.00
1534;DHT22;760;48.822;9.304;2023-07-08T09:33:18;42.60;41.40
1534;DHT22;760;48.822;9.304;2023-07-08T09:35:46;43.10;41.10
1534;DHT22;760;48.822;9.304;2023-07-08T09:38:17;43.30;40.60
1534;DHT22;760;48.822;9.304;2023-07-08T09:40:53;43.70;40.10
1534;DHT22;760;48.822;9.304;2023-07-08T09:43:36;43.80;39.60
1534;DHT22;760;48.822;9.304;2023-07-08T09:46:02;44.00;39.80
1534;DHT22;760;48.822;9.304;2023-07-08T09:48:30;44.00;39.40
1534;DHT22;760;48.822;9.304;2023-07-08T09:50:58;44.10;39.50
1534;DHT22;760;48.822;9.304;2023-07-08T09:53:24;44.50;38.60
1534;DHT22;760;48.822;9.304;2023-07-08T09:55:50;44.50;38.10
1534;DHT22;760;48.822;9.304;2023-07-08T09:58:30;44.60;37.40
1534;DHT22;760;48.822;9.304;2023-07-08T10:01:29;44.70;37.30
1534;DHT22;760;48.822;9.304;2023-07-08T10:03:59;43.80;37.70
1534;DHT22;760;48.822;9.304;2023-07-08T10:06:28;43.10;38.00
1534;DHT22;760;48.822;9.304;2023-07-08T10:08:55;42.60;37.80
1534;DHT22;760;48.822;9.304;2023-07-08T10:11:37;42.10;38.60
1534;DHT22;760;48.822;9.304;2023-07-08T10:14:09;41.70;39.50
1534;DHT22;760;48.822;9.304;2023-07-08T10:16:36;41.40;39.80
1534;DHT22;760;48.822;9.304;2023-07-08T10:19:13;41.60;40.10
1534;DHT22;760;48.822;9.304;2023-07-08T10:35:30;40.20;41.90
1534;DHT22;760;48.822;9.304;2023-07-08T10:41:03;38.70;42.80
1534;DHT22;760;48.822;9.304;2023-07-08T10:49:36;36.10;45.60
1534;DHT22;760;48.822;9.304;2023-07-08T10:55:15;34.70;48.10
1534;DHT22;760;48.822;9.304;2023-07-08T11:00:37;35.00;48.10
1534;DHT22;760;48.822;9.304;2023-07-08T11:03:33;35.50;47.40
1534;DHT22;760;48.822;9.304;2023-07-08T11:06:29;36.10;46.60
1534;DHT22;760;48.822;9.304;2023-07-08T11:08:57;36.40;45.20
1534;DHT22;760;48.822;9.304;2023-07-08T11:11:55;36.50;45.40
1534;DHT22;760;48.822;9.304;2023-07-08T11:14:30;36.50;45.10
1534;DHT22;760;48.822;9.304;2023-07-08T11:17:08;36.50;45.20
1534;DHT22;760;48.822;9.304;2023-07-08T11:19:40;36.30;44.40
1534;DHT22;760;48.822;9.304;2023-07-08T11:22:10;35.60;45.10
1534;DHT22;760;48.822;9.304;2023-07-08T11:24:46;34.90;46.10
1534;DHT22;760;48.822;9.304;2023-07-08T11:32:20;33.10;48.50
1534;DHT22;760;48.822;9.304;2023-07-08T11:34:48;32.80;48.70
1534;DHT22;760;48.822;9.304;2023-07-08T11:37:15;32.50;49.00
1534;DHT22;760;48.822;9.304;2023-07-08T11:39:44;32.30;50.20
1534;DHT22;760;48.822;9.304;2023-07-08T11:44:48;32.20;49.70
1534;DHT22;760;48.822;9.304;2023-07-08T11:47:21;32.00;49.60
1534;DHT22;760;48.822;9.304;2023-07-08T11:49:51;31.90;50.70
1534;DHT22;760;48.822;9.304;2023-07-08T11:52:20;31.90;50.60
1534;DHT22;760;48.822;9.304;2023-07-08T11:54:48;31.90;50.50
1534;DHT22;760;48.822;9.304;2023-07-08T11:57:38;31.90;50.60
1534;DHT22;760;48.822;9.304;2023-07-08T12:00:22;31.80;50.10
1534;DHT22;760;48.822;9.304;2023-07-08T12:02:55;31.90;49.70
1534;DHT22;760;48.822;9.304;2023-07-08T12:05:35;31.90;51.10
1534;DHT22;760;48.822;9.304;2023-07-08T12:08:02;31.90;50.10
1534;DHT22;760;48.822;9.304;2023-07-08T12:10:37;31.90;49.10
1534;DHT22;760;48.822;9.304;2023-07-08T12:13:19;31.70;49.20
1534;DHT22;760;48.822;9.304;2023-07-08T12:15:45;31.60;49.80
1534;DHT22;760;48.822;9.304;2023-07-08T12:18:19;31.60;49.50
1534;DHT22;760;48.822;9.304;2023-07-08T12:20:58;31.50;50.50
1534;DHT22;760;48.822;9.304;2023-07-08T12:23:25;31.40;50.60
1534;DHT22;760;48.822;9.304;2023-07-08T12:25:52;31.40;50.10
1534;DHT22;760;48.822;9.304;2023-07-08T12:28:19;31.50;50.10
1534;DHT22;760;48.822;9.304;2023-07-08T12:30:46;31.40;50.00
1534;DHT22;760;48.822;9.304;2023-07-08T12:33:27;31.50;50.90
1534;DHT22;760;48.822;9.304;2023-07-08T12:35:54;31.70;50.70
1534;DHT22;760;48.822;9.304;2023-07-08T12:38:35;31.90;49.80
1534;DHT22;760;48.822;9.304;2023-07-08T12:41:09;32.00;48.70
1534;DHT22;760;48.822;9.304;2023-07-08T12:43:35;32.00;48.70
1534;DHT22;760;48.822;9.304;2023-07-08T12:46:00;31.80;48.70
1534;DHT22;760;48.822;9.304;2023-07-08T12:48:33;31.70;48.90
1534;DHT22;760;48.822;9.304;2023-07-08T12:50:59;31.70;48.90
1534;DHT22;760;48.822;9.304;2023-07-08T12:53:24;31.60;49.40
1534;DHT22;760;48.822;9.304;2023-07-08T12:55:52;31.60;50.30
1534;DHT22;760;48.822;9.304;2023-07-08T12:58:31;31.70;50.00
1534;DHT22;760;48.822;9.304;2023-07-08T13:01:00;31.80;50.60
1534;DHT22;760;48.822;9.304;2023-07-08T13:03:35;31.90;50.50
1534;DHT22;760;48.822;9.304;2023-07-08T13:06:03;32.00;49.50
1534;DHT22;760;48.822;9.304;2023-07-08T13:08:33;32.00;49.60
1534;DHT22;760;48.822;9.304;2023-07-08T13:11:01;31.90;49.40
1534;DHT22;760;48.822;9.304;2023-07-08T13:13:32;32.00;49.60
1534;DHT22;760;48.822;9.304;2023-07-08T13:15:59;32.00;50.10
1534;DHT22;760;48.822;9.304;2023-07-08T13:18:34;32.00;49.60
1534;DHT22;760;48.822;9.304;2023-07-08T13:21:02;32.00;49.30
1534;DHT22;760;48.822;9.304;2023-07-08T13:23:28;32.00;49.50
1534;DHT22;760;48.822;9.304;2023-07-08T13:25:55;32.10;48.80
1534;DHT22;760;48.822;9.304;2023-07-08T13:28:25;32.10;49.00
1534;DHT22;760;48.822;9.304;2023-07-08T13:30:56;32.10;49.00
1534;DHT22;760;48.822;9.304;2023-07-08T13:33:23;32.00;49.00
1534;DHT22;760;48.822;9.304;2023-07-08T13:35:50;32.00;49.20
1534;DHT22;760;48.822;9.304;2023-07-08T13:38:30;32.00;49.10
1534;DHT22;760;48.822;9.304;2023-07-08T13:41:00;32.00;48.90
1534;DHT22;760;48.822;9.304;2023-07-08T13:43:31;32.00;49.20
1534;DHT22;760;48.822;9.304;2023-07-08T13:45:57;32.00;48.80
1534;DHT22;760;48.822;9.304;2023-07-08T13:48:34;32.00;48.10
1534;DHT22;760;48.822;9.304;2023-07-08T13:51:08;32.00;48.30
1534;DHT22;760;48.822;9.304;2023-07-08T13:53:46;32.00;48.40
1534;DHT22;760;48.822;9.304;2023-07-08T13:56:15;31.90;48.90
1534;DHT22;760;48.822;9.304;2023-07-08T13:58:50;32.00;48.70
1534;DHT22;760;48.822;9.304;2023-07-08T14:01:19;31.90;49.00
1534;DHT22;760;48.822;9.304;2023-07-08T14:03:45;32.00;48.70
1534;DHT22;760;48.822;9.304;2023-07-08T14:06:19;32.00;48.50
1534;DHT22;760;48.822;9.304;2023-07-08T14:08:44;31.90;49.00
1534;DHT22;760;48.822;9.304;2023-07-08T14:11:10;31.90;49.40
1534;DHT22;760;48.822;9.304;2023-07-08T14:13:36;32.00;49.20
1534;DHT22;760;48.822;9.304;2023-07-08T14:16:03;32.00;49.10
1534;DHT22;760;48.822;9.304;2023-07-08T14:18:31;32.00;48.90
1534;DHT22;760;48.822;9.304;2023-07-08T14:20:57;31.90;49.40
1534;DHT22;760;48.822;9.304;2023-07-08T14:23:23;32.00;49.40
1534;DHT22;760;48.822;9.304;2023-07-08T14:25:49;32.00;49.80
1534;DHT22;760;48.822;9.304;2023-07-08T14:28:15;32.00;49.30
1534;DHT22;760;48.822;9.304;2023-07-08T14:30:45;32.10;48.90
1534;DHT22;760;48.822;9.304;2023-07-08T14:33:13;32.10;48.90
1534;DHT22;760;48.822;9.304;2023-07-08T14:35:40;32.00;49.20
1534;DHT22;760;48.822;9.304;2023-07-08T14:38:10;32.10;49.30
1534;DHT22;760;48.822;9.304;2023-07-08T14:40:38;32.10;49.30
1534;DHT22;760;48.822;9.304;2023-07-08T14:43:24;32.10;49.50
1534;DHT22;760;48.822;9.304;2023-07-08T14:45:54;32.20;49.40
1534;DHT22;760;48.822;9.304;2023-07-08T14:48:21;32.20;49.20
1534;DHT22;760;48.822;9.304;2023-07-08T14:50:47;32.20;49.20
1534;DHT22;760;48.822;9.304;2023-07-08T14:53:16;32.20;49.10
1534;DHT22;760;48.822;9.304;2023-07-08T14:55:45;32.20;49.40
1534;DHT22;760;48.822;9.304;2023-07-08T15:00:43;32.30;49.40
1534;DHT22;760;48.822;9.304;2023-07-08T15:03:09;32.30;49.90
1534;DHT22;760;48.822;9.304;2023-07-08T15:05:35;32.30;50.10
1534;DHT22;760;48.822;9.304;2023-07-08T15:08:01;32.40;49.70
1534;DHT22;760;48.822;9.304;2023-07-08T15:10:28;32.60;49.40
1534;DHT22;760;48.822;9.304;2023-07-08T15:12:56;32.70;49.20
1534;DHT22;760;48.822;9.304;2023-07-08T15:15:33;32.80;49.00
1534;DHT22;760;48.822;9.304;2023-07-08T15:18:01;32.80;48.60
1534;DHT22;760;48.822;9.304;2023-07-08T15:20:32;32.90;48.50
1534;DHT22;760;48.822;9.304;2023-07-08T15:22:57;32.90;48.20
1534;DHT22;760;48.822;9.304;2023-07-08T15:25:23;32.90;48.40
1534;DHT22;760;48.822;9.304;2023-07-08T15:27:54;32.90;49.10
1534;DHT22;760;48.822;9.304;2023-07-08T15:30:25;33.00;48.30
1534;DHT22;760;48.822;9.304;2023-07-08T15:32:51;33.00;48.70
1534;DHT22;760;48.822;9.304;2023-07-08T15:35:26;33.10;49.30
1534;DHT22;760;48.822;9.304;2023-07-08T15:37:55;33.10;48.30
1534;DHT22;760;48.822;9.304;2023-07-08T15:40:22;33.10;47.50
1534;DHT22;760;48.822;9.304;2023-07-08T15:42:49;33.00;47.90
1534;DHT22;760;48.822;9.304;2023-07-08T15:45:23;32.80;47.90
1534;DHT22;760;48.822;9.304;2023-07-08T15:47:49;32.60;48.00
1534;DHT22;760;48.822;9.304;2023-07-08T15:50:18;32.40;48.60
1534;DHT22;760;48.822;9.304;2023-07-08T15:52:44;32.30;48.90
1534;DHT22;760;48.822;9.304;2023-07-08T15:55:12;32.10;49.20
1534;DHT22;760;48.822;9.304;2023-07-08T15:57:47;32.10;49.60
1534;DHT22;760;48.822;9.304;2023-07-08T16:00:18;32.00;49.70
1534;DHT22;760;48.822;9.304;2023-07-08T16:02:48;32.00;49.90
1534;DHT22;760;48.822;9.304;2023-07-08T16:05:15;32.10;49.70
1534;DHT22;760;48.822;9.304;2023-07-08T16:07:41;32.10;49.60
1534;DHT22;760;48.822;9.304;2023-07-08T16:10:07;32.10;49.60
1534;DHT22;760;48.822;9.304;2023-07-08T16:12:33;32.00;49.60
1534;DHT22;760;48.822;9.304;2023-07-08T16:14:59;32.00;49.80
1534;DHT22;760;48.822;9.304;2023-07-08T16:17:25;32.00;49.60
1534;DHT22;760;48.822;9.304;2023-07-08T16:19:50;31.90;50.10
1534;DHT22;760;48.822;9.304;2023-07-08T16:22:16;31.90;50.10
1534;DHT22;760;48.822;9.304;2023-07-08T16:24:41;31.90;50.20
1534;DHT22;760;48.822;9.304;2023-07-08T16:27:09;31.90;50.10
1534;DHT22;760;48.822;9.304;2023-07-08T16:29:35;31.90;50.10
1534;DHT22;760;48.822;9.304;2023-07-08T16:32:01;31.80;49.80
1534;DHT22;760;48.822;9.304;2023-07-08T16:34:26;31.80;49.80
1534;DHT22;760;48.822;9.304;2023-07-08T16:36:52;31.70;50.30
1534;DHT22;760;48.822;9.304;2023-07-08T16:39:17;31.70;50.10
1534;DHT22;760;48.822;9.304;2023-07-08T16:41:43;31.60;50.20
1534;DHT22;760;48.822;9.304;2023-07-08T16:44:16;31.60;50.30
1534;DHT22;760;48.822;9.304;2023-07-08T16:46:42;31.50;50.70
1534;DHT22;760;48.822;9.304;2023-07-08T16:49:08;31.50;50.80
1534;DHT22;760;48.822;9.304;2023-07-08T16:51:35;31.50;50.80
1534;DHT22;760;48.822;9.304;2023-07-08T16:54:11;31.40;50.90
1534;DHT22;760;48.822;9.304;2023-07-08T16:56:37;31.40;51.00
1534;DHT22;760;48.822;9.304;2023-07-08T16:59:02;31.40;50.90
1534;DHT22;760;48.822;9.304;2023-07-08T17:01:28;31.40;51.10
1534;DHT22;760;48.822;9.304;2023-07-08T17:03:55;31.40;51.30
1534;DHT22;760;48.822;9.304;2023-07-08T17:06:21;31.30;50.90
1534;DHT22;760;48.822;9.304;2023-07-08T17:08:48;31.40;51.30
1534;DHT22;760;48.822;9.304;2023-07-08T17:11:13;31.30;51.40
1534;DHT22;760;48.822;9.304;2023-07-08T17:13:39;31.20;51.60
1534;DHT22;760;48.822;9.304;2023-07-08T17:16:14;31.20;52.10
1534;DHT22;760;48.822;9.304;2023-07-08T17:18:40;31.20;52.00
1534;DHT22;760;48.822;9.304;2023-07-08T17:21:11;31.10;52.10
1534;DHT22;760;48.822;9.304;2023-07-08T17:23:38;31.10;52.10
1534;DHT22;760;48.822;9.304;2023-07-08T17:26:03;31.10;52.20
1534;DHT22;760;48.822;9.304;2023-07-08T17:28:29;31.10;52.30
1534;DHT22;760;48.822;9.304;2023-07-08T17:30:54;31.10;52.20
1534;DHT22;760;48.822;9.304;2023-07-08T17:33:21;31.10;52.10
1534;DHT22;760;48.822;9.304;2023-07-08T17:35:48;31.00;52.10
1534;DHT22;760;48.822;9.304;2023-07-08T17:38:39;31.00;52.30
1534;DHT22;760;48.822;9.304;2023-07-08T17:41:10;30.90;52.40
1534;DHT22;760;48.822;9.304;2023-07-08T17:43:36;30.90;52.50
1534;DHT22;760;48.822;9.304;2023-07-08T17:46:01;30.90;53.00
1534;DHT22;760;48.822;9.304;2023-07-08T17:48:28;30.80;53.10
1534;DHT22;760;48.822;9.304;2023-07-08T17:50:54;30.80;53.20
1534;DHT22;760;48.822;9.304;2023-07-08T17:53:19;30.80;52.90
1534;DHT22;760;48.822;9.304;2023-07-08T17:55:49;30.80;53.70
1534;DHT22;760;48.822;9.304;2023-07-08T17:58:16;30.80;53.30
1534;DHT22;760;48.822;9.304;2023-07-08T18:00:42;30.60;53.10
1534;DHT22;760;48.822;9.304;2023-07-08T18:03:11;30.60;53.20
1534;DHT22;760;48.822;9.304;2023-07-08T18:05:37;30.60;53.40
1534;DHT22;760;48.822;9.304;2023-07-08T18:08:03;30.60;53.70
1534;DHT22;760;48.822;9.304;2023-07-08T18:10:29;30.60;53.90
1534;DHT22;760;48.822;9.304;2023-07-08T18:12:56;30.50;54.00
1534;DHT22;760;48.822;9.304;2023-07-08T18:15:25;30.50;54.20
1534;DHT22;760;48.822;9.304;2023-07-08T18:17:53;30.40;54.10
1534;DHT22;760;48.822;9.304;2023-07-08T18:20:20;30.40;54.40
1534;DHT22;760;48.822;9.304;2023-07-08T18:22:49;30.30;54.40
1534;DHT22;760;48.822;9.304;2023-07-08T18:25:21;30.20;54.50
1534;DHT22;760;48.822;9.304;2023-07-08T18:27:47;30.20;54.50
1534;DHT22;760;48.822;9.304;2023-07-08T18:30:15;30.10;54.80
1534;DHT22;760;48.822;9.304;2023-07-08T18:32:41;30.00;54.90
1534;DHT22;760;48.822;9.304;2023-07-08T18:35:14;29.90;54.90
1534;DHT22;760;48.822;9.304;2023-07-08T18:37:40;29.90;55.00
1534;DHT22;760;48.822;9.304;2023-07-08T18:40:07;29.80;55.30
1534;DHT22;760;48.822;9.304;2023-07-08T18:42:33;29.70;55.50
1534;DHT22;760;48.822;9.304;2023-07-08T18:44:59;29.70;55.70
1534;DHT22;760;48.822;9.304;2023-07-08T18:47:25;29.60;55.90
1534;DHT22;760;48.822;9.304;2023-07-08T18:49:51;29.50;55.90
1534;DHT22;760;48.822;9.304;2023-07-08T18:52:17;29.40;56.10
1534;DHT22;760;48.822;9.304;2023-07-08T18:54:43;29.30;56.30
1534;DHT22;760;48.822;9.304;2023-07-08T18:57:13;29.30;56.50
1534;DHT22;760;48.822;9.304;2023-07-08T18:59:41;29.20;56.70
1534;DHT22;760;48.822;9.304;2023-07-08T19:02:34;29.10;56.90
1534;DHT22;760;48.822;9.304;2023-07-08T19:05:01;29.00;57.10
1534;DHT22;760;48.822;9.304;2023-07-08T19:07:27;28.90;57.30
1534;DHT22;760;48.822;9.304;2023-07-08T19:09:53;28.80;57.50
1534;DHT22;760;48.822;9.304;2023-07-08T19:12:22;28.70;57.70
1534;DHT22;760;48.822;9.304;2023-07-08T19:14:48;28.60;57.90
1534;DHT22;760;48.822;9.304;2023-07-08T19:17:14;28.50;58.10
1534;DHT22;760;48.822;9.304;2023-07-08T19:19:40;28.40;58.40
1534;DHT22;760;48.822;9.304;2023-07-08T19:22:09;28.30;58.90
1534;DHT22;760;48.822;9.304;2023-07-08T19:24:38;28.20;59.30
1534;DHT22;760;48.822;9.304;2023-07-08T19:27:05;28.10;59.50
1534;DHT22;760;48.822;9.304;2023-07-08T19:29:37;28.00;59.70
1534;DHT22;760;48.822;9.304;2023-07-08T19:32:02;27.90;60.00
1534;DHT22;760;48.822;9.304;2023-07-08T19:34:29;27.80;60.30
1534;DHT22;760;48.822;9.304;2023-07-08T19:36:55;27.70;60.50
1534;DHT22;760;48.822;9.304;2023-07-08T19:39:20;27.60;61.00
1534;DHT22;760;48.822;9.304;2023-07-08T19:41:46;27.60;61.40
1534;DHT22;760;48.822;9.304;2023-07-08T19:44:23;27.50;61.10
1534;DHT22;760;48.822;9.304;2023-07-08T19:46:49;27.50;61.50
1534;DHT22;760;48.822;9.304;2023-07-08T19:49:15;27.40;61.70
1534;DHT22;760;48.822;9.304;2023-07-08T19:51:40;27.40;61.80
1534;DHT22;760;48.822;9.304;2023-07-08T19:54:06;27.30;62.20
1534;DHT22;760;48.822;9.304;2023-07-08T19:56:31;27.20;62.20
1534;DHT22;760;48.822;9.304;2023-07-08T19:58:57;27.10;62.40
1534;DHT22;760;48.822;9.304;2023-07-08T20:01:23;27.10;62.50
1534;DHT22;760;48.822;9.304;2023-07-08T20:03:49;27.00;62.70
1534;DHT22;760;48.822;9.304;2023-07-08T20:06:19;26.90;62.70
1534;DHT22;760;48.822;9.304;2023-07-08T20:08:46;26.90;62.80
1534;DHT22;760;48.822;9.304;2023-07-08T20:11:12;26.80;63.20
1534;DHT22;760;48.822;9.304;2023-07-08T20:13:38;26.80;63.30
1534;DHT22;760;48.822;9.304;2023-07-08T20:18:38;26.70;63.30
1534;DHT22;760;48.822;9.304;2023-07-08T20:21:03;26.70;63.70
1534;DHT22;760;48.822;9.304;2023-07-08T20:23:29;26.60;64.40
1534;DHT22;760;48.822;9.304;2023-07-08T20:25:55;26.50;64.50
1534;DHT22;760;48.822;9.304;2023-07-08T20:28:31;26.50;65.00
1534;DHT22;760;48.822;9.304;2023-07-08T20:30:58;26.40;65.20
1534;DHT22;760;48.822;9.304;2023-07-08T20:33:25;26.30;65.60
1534;DHT22;760;48.822;9.304;2023-07-08T20:35:51;26.30;66.30
1534;DHT22;760;48.822;9.304;2023-07-08T20:38:18;26.20;66.70
1534;DHT22;760;48.822;9.304;2023-07-08T20:40:45;26.10;66.80
1534;DHT22;760;48.822;9.304;2023-07-08T20:43:18;26.20;67.40
1534;DHT22;760;48.822;9.304;2023-07-08T20:45:46;26.10;68.50
1534;DHT22;760;48.822;9.304;2023-07-08T20:48:24;26.00;68.40
1534;DHT22;760;48.822;9.304;2023-07-08T20:50:51;26.00;68.60
1534;DHT22;760;48.822;9.304;2023-07-08T20:53:18;25.90;68.50
1534;DHT22;760;48.822;9.304;2023-07-08T20:55:44;25.90;68.60
1534;DHT22;760;48.822;9.304;2023-07-08T20:58:12;25.90;68.80
1534;DHT22;760;48.822;9.304;2023-07-08T21:00:38;25.80;69.00
1534;DHT22;760;48.822;9.304;2023-07-08T21:03:08;25.80;68.60
1534;DHT22;760;48.822;9.304;2023-07-08T21:05:35;25.70;68.80
1534;DHT22;760;48.822;9.304;2023-07-08T21:08:00;25.60;69.00
1534;DHT22;760;48.822;9.304;2023-07-08T21:10:27;25.60;69.10
1534;DHT22;760;48.822;9.304;2023-07-08T21:12:54;25.60;69.40
1534;DHT22;760;48.822;9.304;2023-07-08T21:15:26;25.50;69.40
1534;DHT22;760;48.822;9.304;2023-07-08T21:17:52;25.50;70.20
1534;DHT22;760;48.822;9.304;2023-07-08T21:20:20;25.40;70.40